Time;durP1;ratioP1;P1;durP2;ratioP2;P2;SDS_P1;SDS_P2;PMS_P1;PMS_P2;Temp;Humidity;BMP_temperature;BMP_pressure;BME280_temperature;BME280_humidity;BME280_pressure;Samples;Min_cycle;Max_cycle;Signal;HPM_P1;HPM_P2
2024/04/18 00:00:26;;;;;;;7.77;1.27;;;;;;;4.38;100.00;101396.53;5409788;26;20241;-72
2024/04/18 00:02:52;;;;;;;6.80;1.40;;;;;;;5.31;100.00;101519.69;5411690;26;20249;-71
2024/04/18 00:05:19;;;;;;;6.17;1.37;;;;;;;5.47;100.00;101514.56;5409776;26;20312;-71
2024/04/18 00:07:45;;;;;;;6.07;1.43;;;;;;;4.53;100.00;101379.13;5407444;26;20268;-71
2024/04/18 00:10:10;;;;;;;5.80;1.20;;;;;;;5.51;100.00;101518.59;5414143;26;20522;-71
2024/04/18 00:12:36;;;;;;;11.90;1.93;;;;;;;5.41;100.00;101485.91;5409437;26;20945;-71
2024/04/18 00:15:01;;;;;;;6.50;1.77;;;;;;;5.44;100.00;101526.34;5408714;26;20245;-71
2024/04/18 00:17:27;;;;;;;7.47;1.50;;;;;;;5.03;100.00;101513.50;5403681;26;20661;-71
2024/04/18 00:19:52;;;;;;;6.70;1.27;;;;;;;5.35;100.00;101521.91;5410767;26;20784;-72
2024/04/18 00:22:18;;;;;;;7.97;1.40;;;;;;;5.31;100.00;101493.91;5414119;26;20811;-72
2024/04/18 00:24:44;;;;;;;5.80;1.10;;;;;;;4.86;100.00;101414.09;5412098;26;20246;-71
2024/04/18 00:27:09;;;;;;;4.30;1.03;;;;;;;5.62;100.00;101529.03;5406923;26;20614;-71
2024/04/18 00:29:36;;;;;;;7.30;1.03;;;;;;;5.31;100.00;101503.72;5406989;26;20545;-71
2024/04/18 00:32:01;;;;;;;5.97;1.07;;;;;;;5.30;100.00;101473.63;5410020;26;20331;-71
2024/04/18 00:34:27;;;;;;;6.87;1.30;;;;;;;5.50;100.00;101522.25;5411285;26;20515;-72
2024/04/18 00:36:52;;;;;;;5.33;1.33;;;;;;;4.90;100.00;101415.47;5416608;26;20292;-71
2024/04/18 00:39:18;;;;;;;5.47;1.20;;;;;;;5.56;100.00;101537.63;5416809;26;20236;-70
2024/04/18 00:41:43;;;;;;;10.30;1.20;;;;;;;5.37;100.00;101511.94;5412372;26;20245;-70
2024/04/18 00:44:10;;;;;;;6.30;1.27;;;;;;;4.68;100.00;101398.09;5410428;26;20239;-71
2024/04/18 00:46:37;;;;;;;5.77;1.20;;;;;;;4.91;100.00;101412.66;5415440;26;20837;-71
2024/04/18 00:49:02;;;;;;;8.20;1.40;;;;;;;5.49;100.00;101533.88;5407750;26;20547;-71
2024/04/18 00:51:28;;;;;;;4.50;0.90;;;;;;;5.35;100.00;101507.75;5415270;26;21057;-71
2024/04/18 00:53:55;;;;;;;7.30;1.20;;;;;;;5.40;100.00;101540.91;5412050;26;20697;-71
2024/04/18 00:56:21;;;;;;;6.00;1.20;;;;;;;4.92;100.00;101470.19;5415936;26;20602;-71
2024/04/18 00:58:48;;;;;;;7.55;1.30;;;;;;;5.27;100.00;101513.00;5417494;26;20513;-71
2024/04/18 01:01:14;;;;;;;7.40;2.00;;;;;;;5.05;100.00;101472.50;5414011;26;20265;-71
2024/04/18 01:03:40;;;;;;;5.60;1.07;;;;;;;5.26;100.00;101520.13;5417549;26;20755;-71
2024/04/18 01:06:09;;;;;;;6.17;1.17;;;;;;;4.70;100.00;101428.84;5409532;26;20463;-71
2024/04/18 01:08:34;;;;;;;5.87;1.40;;;;;;;4.45;100.00;101410.91;5402907;26;20241;-71
2024/04/18 01:11:00;;;;;;;8.47;1.50;;;;;;;5.19;100.00;101522.53;5405958;26;20540;-71
2024/04/18 01:13:37;;;;;;;6.57;1.20;;;;;;;4.64;100.00;101463.16;5412700;26;20291;-71
2024/04/18 01:16:04;;;;;;;6.53;2.03;;;;;;;5.07;100.00;101531.69;5396791;26;20801;-71
2024/04/18 01:18:33;;;;;;;6.57;1.27;;;;;;;4.44;100.00;101503.03;5404716;26;20470;-72
2024/04/18 01:20:59;;;;;;;6.27;1.20;;;;;;;5.12;100.00;101550.72;5436993;26;20457;-71
2024/04/18 01:23:28;;;;;;;6.97;1.20;;;;;;;4.14;100.00;101424.41;5406877;26;20500;-70
2024/04/18 01:25:54;;;;;;;4.77;1.20;;;;;;;4.81;100.00;101534.16;5412052;26;20620;-72
2024/04/18 01:28:20;;;;;;;5.97;1.37;;;;;;;5.35;100.00;101552.97;5389067;26;20850;-70
2024/04/18 01:30:45;;;;;;;6.93;1.33;;;;;;;4.04;100.00;101407.66;5399550;26;20469;-71
2024/04/18 01:33:11;;;;;;;5.20;1.00;;;;;;;4.67;100.00;101540.75;5404377;26;20296;-71
2024/04/18 01:35:36;;;;;;;5.43;1.00;;;;;;;4.05;100.00;101475.69;5403934;26;20643;-71
2024/04/18 01:38:02;;;;;;;8.37;1.30;;;;;;;4.44;100.00;101475.66;5404916;26;20241;-71
2024/04/18 01:40:28;;;;;;;8.60;1.33;;;;;;;5.17;100.00;101585.66;5401914;26;20741;-72
2024/04/18 01:42:53;;;;;;;5.70;1.35;;;;;;;4.83;100.00;101529.53;5403151;26;20538;-71
2024/04/18 01:45:19;;;;;;;5.13;1.10;;;;;;;5.13;100.00;101549.72;5399230;26;20785;-71
2024/04/18 01:47:44;;;;;;;5.90;1.10;;;;;;;5.04;100.00;101558.56;5406148;26;20245;-71
2024/04/18 01:50:10;;;;;;;7.60;1.70;;;;;;;4.06;100.00;101401.22;5408203;26;20606;-71
2024/04/18 01:52:37;;;;;;;6.40;0.97;;;;;;;4.45;100.00;101459.53;5405070;26;20245;-72
2024/04/18 01:55:03;;;;;;;5.57;1.43;;;;;;;4.19;100.00;101455.81;5407832;26;20295;-70
2024/04/18 01:57:28;;;;;;;9.80;1.37;;;;;;;4.90;100.00;101567.00;5408517;26;20526;-71
2024/04/18 01:59:54;;;;;;;7.97;1.27;;;;;;;4.50;100.00;101539.66;5411757;26;20465;-71
2024/04/18 02:02:19;;;;;;;5.40;1.23;;;;;;;4.46;100.00;101580.78;5411805;26;20241;-71
2024/04/18 02:04:44;;;;;;;6.23;1.87;;;;;;;3.80;100.00;101443.44;5403655;26;20240;-71
2024/04/18 02:07:10;;;;;;;5.00;1.00;;;;;;;4.38;100.00;101508.09;5413255;26;20249;-72
2024/04/18 02:09:35;;;;;;;6.10;1.20;;;;;;;4.53;100.00;101550.00;5408319;26;20715;-71
2024/04/18 02:12:01;;;;;;;5.60;1.20;;;;;;;4.27;100.00;101475.38;5415259;26;20638;-71
2024/04/18 02:14:26;;;;;;;5.70;1.50;;;;;;;3.84;100.00;101459.91;5402583;26;20245;-72
2024/04/18 02:16:51;;;;;;;6.70;1.37;;;;;;;3.94;100.00;101436.03;5413880;26;20282;-71
2024/04/18 02:19:17;;;;;;;6.57;1.40;;;;;;;4.64;100.00;101551.66;5405170;26;20251;-71
2024/04/18 02:21:42;;;;;;;4.57;1.00;;;;;;;4.05;100.00;101444.69;5407718;26;20586;-71
2024/04/18 02:24:08;;;;;;;7.27;1.10;;;;;;;4.64;100.00;101567.63;5406746;26;20744;-71
2024/04/18 02:26:34;;;;;;;4.80;1.50;;;;;;;4.34;100.00;101520.81;5410918;26;20243;-72
2024/04/18 02:29:00;;;;;;;7.43;1.17;;;;;;;3.95;100.00;101518.16;5409773;26;20261;-71
2024/04/18 02:31:26;;;;;;;6.10;1.20;;;;;;;4.53;100.00;101560.63;5410748;26;20468;-71
2024/04/18 02:33:52;;;;;;;9.27;1.20;;;;;;;4.17;100.00;101487.84;5408365;26;20250;-71
2024/04/18 02:36:18;;;;;;;4.73;1.37;;;;;;;4.44;100.00;101577.41;5412358;26;20525;-71
2024/04/18 02:38:43;;;;;;;7.47;1.73;;;;;;;4.15;100.00;101580.06;5413705;26;20481;-71
2024/04/18 02:41:09;;;;;;;8.90;1.30;;;;;;;4.16;100.00;101597.66;5413772;26;20256;-71
2024/04/18 02:43:34;;;;;;;5.90;1.57;;;;;;;4.25;100.00;101583.59;5410841;26;20271;-71
2024/04/18 02:46:00;;;;;;;5.53;1.03;;;;;;;3.83;100.00;101509.50;5412530;26;20603;-71
2024/04/18 02:48:25;;;;;;;5.00;1.10;;;;;;;3.66;100.00;101435.88;5408868;26;20237;-72
2024/04/18 02:50:51;;;;;;;6.07;1.10;;;;;;;3.72;100.00;101490.22;5387078;26;20266;-71
2024/04/18 02:53:16;;;;;;;5.47;1.30;;;;;;;4.62;100.00;101593.47;5389939;26;20243;-71
2024/04/18 02:55:41;;;;;;;7.20;1.30;;;;;;;4.49;100.00;101607.06;5404626;26;20987;-71
2024/04/18 02:58:07;;;;;;;7.43;1.20;;;;;;;4.50;100.00;101607.91;5407695;26;20617;-71
2024/04/18 03:00:35;;;;;;;5.80;1.33;;;;;;;4.03;100.00;101494.41;5410050;26;20345;-71
2024/04/18 03:03:00;;;;;;;5.90;1.03;;;;;;;3.96;100.00;101487.97;5387398;26;20244;-71
2024/04/18 03:05:26;;;;;;;5.20;1.30;;;;;;;3.90;100.00;101507.13;5409781;26;20605;-71
2024/04/18 03:07:54;;;;;;;6.07;1.43;;;;;;;3.82;100.00;101496.38;5406781;26;20839;-72
2024/04/18 03:10:20;;;;;;;6.00;1.13;;;;;;;4.60;100.00;101619.38;5412861;26;20306;-72
2024/04/18 03:12:45;;;;;;;6.20;1.00;;;;;;;4.49;100.00;101625.66;5404567;26;20558;-71
2024/04/18 03:15:10;;;;;;;5.20;1.73;;;;;;;4.18;100.00;101609.00;5406883;26;20240;-72
2024/04/18 03:17:36;;;;;;;6.93;1.53;;;;;;;4.29;100.00;101631.94;5402163;26;20240;-71
2024/04/18 03:20:01;;;;;;;5.30;1.10;;;;;;;4.33;100.00;101616.56;5414364;26;20241;-72
2024/04/18 03:22:27;;;;;;;9.90;2.03;;;;;;;3.21;100.00;101500.03;5408149;26;20288;-71
2024/04/18 03:24:52;;;;;;;7.33;1.77;;;;;;;3.55;100.00;101516.41;5409724;26;20245;-71
2024/04/18 03:27:18;;;;;;;4.60;1.70;;;;;;;3.52;100.00;101508.75;5410330;26;20765;-72
2024/04/18 03:29:43;;;;;;;4.53;1.17;;;;;;;4.09;100.00;101588.59;5409289;26;20248;-71
2024/04/18 03:32:09;;;;;;;8.17;1.30;;;;;;;3.88;100.00;101566.63;5407966;26;20245;-71
2024/04/18 03:34:34;;;;;;;4.43;1.10;;;;;;;3.52;100.00;101559.13;5402378;26;20240;-71
2024/04/18 03:37:00;;;;;;;6.13;1.20;;;;;;;4.34;100.00;101661.59;5409472;26;20805;-71
2024/04/18 03:39:28;;;;;;;5.57;1.07;;;;;;;3.82;100.00;101597.22;5408525;26;20240;-71
2024/04/18 03:41:53;;;;;;;6.33;1.47;;;;;;;4.23;100.00;101613.91;5440412;26;20245;-70
2024/04/18 03:44:18;;;;;;;5.00;1.20;;;;;;;4.14;100.00;101591.69;5407123;26;20560;-72
2024/04/18 03:46:44;;;;;;;6.30;1.20;;;;;;;3.92;100.00;101597.22;5412055;26;20282;-71
2024/04/18 03:49:09;;;;;;;4.53;1.13;;;;;;;3.52;100.00;101529.97;5411435;26;20300;-72
2024/04/18 03:51:35;;;;;;;5.03;1.17;;;;;;;4.16;100.00;101632.19;5406526;26;20625;-72
2024/04/18 03:54:01;;;;;;;5.83;1.07;;;;;;;3.53;100.00;101557.31;5409546;26;20240;-70
2024/04/18 03:56:26;;;;;;;6.57;1.30;;;;;;;3.21;100.00;101507.13;5413162;26;20251;-72
2024/04/18 03:58:54;;;;;;;5.70;1.27;;;;;;;3.45;100.00;101538.63;5411702;26;20477;-71
2024/04/18 04:01:19;;;;;;;6.20;1.50;;;;;;;4.26;100.00;101643.69;5412478;26;20732;-72
2024/04/18 04:03:45;;;;;;;4.57;1.10;;;;;;;3.72;100.00;101591.88;5408451;26;20478;-71
2024/04/18 04:06:10;;;;;;;5.37;1.47;;;;;;;3.97;100.00;101606.47;5409941;26;20591;-72
2024/04/18 04:08:36;;;;;;;5.00;1.33;;;;;;;3.95;100.00;101611.06;5406434;26;20717;-71
2024/04/18 04:11:01;;;;;;;5.70;1.60;;;;;;;4.10;100.00;101663.78;5405235;26;20253;-71
2024/04/18 04:13:26;;;;;;;4.40;1.13;;;;;;;4.30;100.00;101655.69;5436192;26;20280;-71
2024/04/18 04:15:52;;;;;;;5.83;1.20;;;;;;;4.25;100.00;101665.03;5412462;26;20772;-71
2024/04/18 04:18:17;;;;;;;6.10;1.20;;;;;;;4.11;100.00;101670.75;5412279;26;20705;-71
2024/04/18 04:20:44;;;;;;;4.83;1.30;;;;;;;3.25;100.00;101525.28;5414150;26;20345;-72
2024/04/18 04:23:09;;;;;;;5.13;1.10;;;;;;;3.56;100.00;101563.22;5414247;26;20328;-72
2024/04/18 04:25:35;;;;;;;4.67;1.27;;;;;;;4.00;100.00;101615.97;5410824;26;20559;-71
2024/04/18 04:28:01;;;;;;;5.67;1.10;;;;;;;4.05;100.00;101656.19;5408033;26;20288;-71
2024/04/18 04:30:26;;;;;;;7.90;1.60;;;;;;;3.89;100.00;101635.50;5405588;26;20528;-71
2024/04/18 04:32:52;;;;;;;6.23;1.13;;;;;;;3.97;100.00;101606.47;5412594;26;20241;-71
2024/04/18 04:35:17;;;;;;;7.77;2.43;;;;;;;3.61;100.00;101529.13;5408507;26;20266;-71
2024/04/18 04:37:43;;;;;;;10.40;2.07;;;;;;;3.43;100.00;101580.34;5406669;26;20242;-72
2024/04/18 04:40:08;;;;;;;4.83;1.20;;;;;;;3.90;100.00;101690.25;5412080;26;20381;-71
2024/04/18 04:42:34;;;;;;;6.43;1.50;;;;;;;3.62;100.00;101575.09;5406459;26;20256;-71
2024/04/18 04:44:59;;;;;;;6.47;1.60;;;;;;;4.21;100.00;101683.06;5411799;26;20516;-73
2024/04/18 04:47:25;;;;;;;6.90;1.77;;;;;;;4.33;100.00;101702.38;5408224;26;20942;-70
2024/04/18 04:49:51;;;;;;;7.70;1.93;;;;;;;3.40;100.00;101623.88;5410865;26;20240;-72
2024/04/18 04:52:17;;;;;;;8.10;1.70;;;;;;;2.93;100.00;101597.81;5412996;26;20241;-71
2024/04/18 04:54:43;;;;;;;6.97;1.60;;;;;;;3.72;100.00;101694.53;5404612;26;20577;-72
2024/04/18 04:57:09;;;;;;;11.03;2.00;;;;;;;3.60;100.00;101709.69;5410012;26;20643;-71
2024/04/18 04:59:35;;;;;;;6.87;1.80;;;;;;;3.42;100.00;101621.94;5407004;26;20512;-70
2024/04/18 05:02:01;;;;;;;9.23;1.87;;;;;;;4.24;100.00;101722.63;5410504;26;20518;-69
2024/04/18 05:04:26;;;;;;;5.43;1.40;;;;;;;4.17;100.00;101707.41;5411788;26;20806;-70
2024/04/18 05:06:52;;;;;;;5.70;1.37;;;;;;;4.47;100.00;101725.91;5407876;26;20283;-70
2024/04/18 05:09:20;;;;;;;6.13;1.63;;;;;;;3.72;100.00;101606.94;5412285;26;20249;-69
2024/04/18 05:11:46;;;;;;;8.13;1.90;;;;;;;3.39;100.00;101604.47;5409287;26;20285;-71
2024/04/18 05:14:12;;;;;;;5.87;1.77;;;;;;;3.13;100.00;101574.06;5395255;26;20506;-71
2024/04/18 05:16:37;;;;;;;4.90;1.37;;;;;;;4.25;100.00;101723.47;5407491;26;20486;-71
2024/04/18 05:19:03;;;;;;;5.10;1.43;;;;;;;3.97;100.00;101664.88;5409437;26;20316;-71
2024/04/18 05:21:28;;;;;;;6.07;1.70;;;;;;;3.85;100.00;101648.22;5409281;26;20244;-71
2024/04/18 05:23:53;;;;;;;7.80;1.80;;;;;;;3.74;100.00;101602.38;5400700;26;20249;-72
2024/04/18 05:26:20;;;;;;;10.77;1.70;;;;;;;3.86;100.00;101635.78;5396672;26;20238;-73
2024/04/18 05:31:30;;;;;;;6.30;1.40;;;;;;;4.44;100.00;101712.06;5414332;26;20539;-73
2024/04/18 05:33:55;;;;;;;6.60;1.90;;;;;;;4.52;100.00;101752.06;5413035;26;20472;-72
2024/04/18 05:36:20;;;;;;;6.40;2.07;;;;;;;4.58;100.00;101714.31;5408023;26;20401;-71
2024/04/18 05:38:46;;;;;;;5.27;1.53;;;;;;;4.17;100.00;101633.88;5414502;26;20314;-71
2024/04/18 05:41:11;;;;;;;6.90;1.47;;;;;;;4.44;100.00;101658.94;5413225;26;21591;-73
2024/04/18 05:43:37;;;;;;;6.07;1.70;;;;;;;4.90;100.00;101753.09;5409312;26;20246;-71
2024/04/18 05:46:02;;;;;;;7.07;1.93;;;;;;;4.17;100.00;101607.34;5407522;26;20270;-70
2024/04/18 05:48:28;;;;;;;6.10;1.87;;;;;;;4.67;100.00;101710.00;5406455;26;20252;-70
2024/04/18 05:50:53;;;;;;;6.47;1.90;;;;;;;4.97;100.00;101751.53;5408299;26;20352;-69
2024/04/18 05:53:18;;;;;;;8.67;1.83;;;;;;;5.01;100.00;101720.22;5407989;26;20368;-69
2024/04/18 05:55:44;;;;;;;6.33;2.37;;;;;;;5.04;100.00;101720.78;5408493;26;20263;-71
2024/04/18 05:58:09;;;;;;;8.40;2.00;;;;;;;4.81;100.00;101650.28;5414483;26;20347;-70
2024/04/18 06:00:35;;;;;;;7.67;2.10;;;;;;;5.03;100.00;101647.28;5407174;26;20244;-71
2024/04/18 06:03:01;;;;;;;8.77;1.90;;;;;;;4.93;100.00;101641.16;5411822;26;20241;-70
2024/04/18 06:05:27;;;;;;;11.10;2.10;;;;;;;4.96;100.00;101670.94;5415233;26;20471;-69
2024/04/18 06:07:52;;;;;;;6.30;1.95;;;;;;;5.76;100.00;101755.81;5410751;26;20237;-69
2024/04/18 06:10:18;;;;;;;9.60;1.90;;;;;;;6.15;100.00;101745.84;5408154;26;20858;-71
2024/04/18 06:12:43;;;;;;;6.93;1.60;;;;;;;6.19;100.00;101709.94;5409465;26;20651;-70
2024/04/18 06:15:09;;;;;;;9.83;2.70;;;;;;;5.92;100.00;101689.44;5415633;26;20709;-70
2024/04/18 06:17:36;;;;;;;6.40;1.60;;;;;;;6.22;100.00;101704.31;5414473;26;20350;-71
2024/04/18 06:20:01;;;;;;;8.90;1.90;;;;;;;5.63;100.00;101626.50;5410094;26;20282;-71
2024/04/18 06:22:28;;;;;;;10.27;1.80;;;;;;;5.78;100.00;101640.16;5409922;26;20541;-71
2024/04/18 06:24:54;;;;;;;8.47;1.83;;;;;;;6.10;100.00;101631.78;5406806;26;20247;-70
2024/04/18 06:27:19;;;;;;;8.70;2.00;;;;;;;6.15;100.00;101628.66;5410231;26;20529;-70
2024/04/18 06:29:47;;;;;;;10.43;2.00;;;;;;;6.85;100.00;101719.44;5410085;26;20777;-72
2024/04/18 06:32:12;;;;;;;6.57;2.07;;;;;;;6.51;100.00;101626.00;5405784;26;20271;-71
2024/04/18 06:34:38;;;;;;;10.00;1.63;;;;;;;7.30;100.00;101742.50;5408705;26;20472;-70
2024/04/18 06:37:06;;;;;;;7.47;2.00;;;;;;;6.86;100.00;101640.31;5404578;26;20625;-70
2024/04/18 06:39:31;;;;;;;5.70;1.80;;;;;;;6.78;100.00;101638.41;5408516;26;20244;-71
2024/04/18 06:41:57;;;;;;;7.23;1.80;;;;;;;7.58;100.00;101751.22;5413887;26;20530;-72
2024/04/18 06:44:22;;;;;;;9.87;1.97;;;;;;;7.36;100.00;101709.84;5413811;26;20249;-71
2024/04/18 06:46:48;;;;;;;7.47;1.60;;;;;;;7.06;100.00;101635.59;5405454;26;20547;-70
2024/04/18 06:49:13;;;;;;;8.60;1.60;;;;;;;7.86;100.00;101751.88;5411275;26;20832;-71
2024/04/18 06:51:39;;;;;;;7.00;1.63;;;;;;;7.50;100.00;101681.75;5411375;26;20287;-70
2024/04/18 06:54:04;;;;;;;6.23;1.27;;;;;;;7.89;100.00;101751.56;5414028;26;20651;-70
2024/04/18 06:56:29;;;;;;;8.10;1.43;;;;;;;7.58;100.00;101710.31;5407661;26;20665;-72
2024/04/18 06:58:55;;;;;;;5.40;1.30;;;;;;;7.54;100.00;101695.63;5408220;26;20238;-70
2024/04/18 07:01:20;;;;;;;7.60;1.10;;;;;;;7.80;100.00;101735.66;5415345;26;20628;-70
2024/04/18 07:03:46;;;;;;;7.83;1.10;;;;;;;8.04;100.00;101754.50;5411506;26;20731;-70
2024/04/18 07:06:11;;;;;;;5.90;1.27;;;;;;;7.07;100.00;101598.09;5401664;26;20378;-71
2024/04/18 07:08:36;;;;;;;5.90;1.33;;;;;;;7.70;100.00;101706.41;5408381;26;20242;-71
2024/04/18 07:11:02;;;;;;;6.53;1.63;;;;;;;7.32;100.00;101635.59;5404228;26;20232;-71
2024/04/18 07:13:33;;;;;;;6.10;1.00;;;;;;;8.11;100.00;101755.50;5415908;26;20259;-71
2024/04/18 07:16:03;;;;;;;6.63;1.10;;;;;;;7.40;100.00;101647.16;5403795;26;21023;-70
2024/04/18 07:18:28;;;;;;;9.47;1.47;;;;;;;8.00;100.00;101760.31;5414315;26;20478;-71
2024/04/18 07:20:55;;;;;;;7.13;1.40;;;;;;;7.78;100.00;101722.47;5409077;26;20514;-70
2024/04/18 07:23:21;;;;;;;13.73;2.00;;;;;;;7.68;100.00;101711.06;5405726;26;20292;-71
2024/04/18 07:25:46;;;;;;;5.90;1.13;;;;;;;8.12;100.00;101764.38;5398245;26;21036;-71
2024/04/18 07:28:12;;;;;;;8.10;1.17;;;;;;;7.42;100.00;101655.84;5406942;26;20459;-72
2024/04/18 07:30:37;;;;;;;6.03;0.97;;;;;;;7.56;100.00;101648.25;5405212;26;20352;-70
2024/04/18 07:33:03;;;;;;;7.33;1.20;;;;;;;7.63;100.00;101647.44;5406947;26;20330;-71
2024/04/18 07:35:29;;;;;;;6.10;1.13;;;;;;;7.85;100.00;101635.34;5405723;26;20243;-70
2024/04/18 07:37:55;;;;;;;11.67;1.30;;;;;;;8.56;100.00;101757.06;5409517;26;20714;-70
2024/04/18 07:40:21;;;;;;;7.40;1.37;;;;;;;8.36;100.00;101748.44;5408113;26;20350;-71
2024/04/18 07:42:50;;;;;;;5.13;0.90;;;;;;;7.92;100.00;101692.47;5403401;26;20532;-70
2024/04/18 07:45:16;;;;;;;6.83;1.20;;;;;;;7.73;100.00;101655.34;5409414;26;20469;-71
2024/04/18 07:47:42;;;;;;;4.73;0.87;;;;;;;7.80;100.00;101663.53;5411625;26;20532;-70
2024/04/18 07:50:08;;;;;;;5.20;0.90;;;;;;;7.77;100.00;101669.19;5409456;26;20513;-72
2024/04/18 07:52:34;;;;;;;4.70;0.87;;;;;;;8.36;100.00;101737.75;5416177;26;20343;-70
2024/04/18 07:55:00;;;;;;;6.63;0.80;;;;;;;8.35;100.00;101729.88;5411304;26;20922;-72
2024/04/18 07:57:25;;;;;;;4.63;0.93;;;;;;;8.59;100.00;101750.53;5413478;26;20614;-71
2024/04/18 07:59:51;;;;;;;4.90;0.90;;;;;;;8.88;100.00;101786.69;5405721;26;20241;-71
2024/04/18 08:02:16;;;;;;;5.93;1.00;;;;;;;8.53;100.00;101737.81;5403382;26;20272;-71
2024/04/18 08:04:42;;;;;;;4.20;0.80;;;;;;;8.58;100.00;101746.19;5410574;26;20245;-72
2024/04/18 08:07:07;;;;;;;5.80;1.10;;;;;;;8.92;100.00;101799.59;5408992;26;20721;-72
2024/04/18 08:09:33;;;;;;;6.13;1.13;;;;;;;8.49;100.00;101744.50;5410358;26;20244;-72
2024/04/18 08:11:58;;;;;;;10.30;1.00;;;;;;;8.60;100.00;101798.50;5406861;26;20269;-72
2024/04/18 08:14:23;;;;;;;4.33;0.90;;;;;;;8.40;100.00;101772.22;5412493;26;20252;-72
2024/04/18 08:16:49;;;;;;;7.30;1.00;;;;;;;8.76;100.00;101815.59;5414815;26;20905;-72
2024/04/18 08:19:14;;;;;;;4.70;0.80;;;;;;;8.90;100.00;101814.97;5412276;26;20237;-71
2024/04/18 08:21:40;;;;;;;6.70;0.73;;;;;;;8.98;100.00;101814.16;5413326;26;20275;-71
2024/04/18 08:24:05;;;;;;;7.47;1.00;;;;;;;8.69;100.00;101766.44;5416091;26;20240;-72
2024/04/18 08:26:31;;;;;;;6.30;0.90;;;;;;;8.71;100.00;101767.97;5413150;26;20726;-72
2024/04/18 08:28:56;;;;;;;7.23;1.20;;;;;;;8.79;100.00;101757.28;5413251;26;20239;-70
2024/04/18 08:31:21;;;;;;;8.47;1.47;;;;;;;8.62;100.00;101736.84;5415516;26;20237;-70
2024/04/18 08:33:48;;;;;;;5.60;1.13;;;;;;;8.33;100.00;101724.72;5417760;26;20728;-72
2024/04/18 08:36:13;;;;;;;8.20;0.90;;;;;;;9.08;100.00;101820.19;5412582;26;20260;-70
2024/04/18 08:38:39;;;;;;;6.27;1.10;;;;;;;8.88;100.00;101781.34;5416780;26;20804;-71
2024/04/18 08:41:11;;;;;;;7.20;1.20;;;;;;;8.95;100.00;101769.84;5413437;26;20320;-71
2024/04/18 08:43:36;;;;;;;5.87;1.10;;;;;;;8.53;100.00;101717.28;5439622;26;20301;-71
2024/04/18 08:46:04;;;;;;;7.03;1.00;;;;;;;9.38;100.00;101852.69;5386423;26;20478;-72
2024/04/18 08:48:31;;;;;;;5.90;1.10;;;;;;;9.38;100.00;101839.31;5439450;26;20237;-70
2024/04/18 08:51:00;;;;;;;5.40;0.90;;;;;;;8.66;100.00;101724.81;5409101;26;20478;-71
2024/04/18 08:53:25;;;;;;;4.73;0.90;;;;;;;9.43;100.00;101839.63;5411589;26;20474;-71
2024/04/18 08:55:56;;;;;;;4.00;0.97;;;;;;;8.91;100.00;101759.59;5409628;26;21010;-70
2024/04/18 08:58:22;;;;;;;6.20;1.13;;;;;;;9.34;100.00;101846.81;5405758;26;20274;-71
2024/04/18 09:00:48;;;;;;;6.13;1.00;;;;;;;9.12;100.00;101828.75;5407212;26;20490;-71
2024/04/18 09:03:14;;;;;;;8.53;1.00;;;;;;;9.32;100.00;101856.03;5414639;26;20253;-72
2024/04/18 09:05:41;;;;;;;5.30;0.80;;;;;;;8.48;100.00;101722.28;5405628;26;20889;-71
2024/04/18 09:08:09;;;;;;;4.80;0.80;;;;;;;9.46;100.00;101847.34;5409978;26;20285;-71
2024/04/18 09:10:35;;;;;;;4.10;0.70;;;;;;;9.39;100.00;101801.63;5412108;26;20589;-72
2024/04/18 09:13:00;;;;;;;4.67;0.80;;;;;;;8.80;100.00;101732.19;5404923;26;21464;-71
2024/04/18 09:15:27;;;;;;;4.70;0.93;;;;;;;8.77;100.00;101711.13;5404330;26;20814;-71
2024/04/18 09:18:02;;;;;;;7.90;1.17;;;;;;;9.57;100.00;101824.72;5408628;26;20299;-72
2024/04/18 09:20:29;;;;;;;5.20;0.90;;;;;;;9.48;100.00;101832.75;5410572;26;20607;-72
2024/04/18 09:22:54;;;;;;;6.83;0.70;;;;;;;9.37;100.00;101806.31;5408440;26;20472;-71
2024/04/18 09:25:20;;;;;;;5.13;0.70;;;;;;;8.69;100.00;101734.34;5412309;26;20604;-70
2024/04/18 09:27:47;;;;;;;4.90;0.97;;;;;;;8.79;100.00;101735.03;5412763;26;20339;-71
2024/04/18 09:30:14;;;;;;;5.47;1.00;;;;;;;9.73;100.00;101841.63;5411749;26;20245;-71
2024/04/18 09:32:41;;;;;;;5.57;0.93;;;;;;;8.76;100.00;101679.19;5412327;26;20459;-72
2024/04/18 09:35:08;;;;;;;5.40;0.93;;;;;;;9.32;100.00;101730.22;5411471;26;21137;-72
2024/04/18 09:37:40;;;;;;;5.57;1.00;;;;;;;10.14;100.00;101828.16;5413141;26;20473;-72
2024/04/18 09:40:12;;;;;;;10.27;0.97;;;;;;;10.16;100.00;101834.19;5411694;26;20489;-72
2024/04/18 09:42:55;;;;;;;4.53;1.00;;;;;;;9.89;100.00;101845.31;5405818;26;20459;-70
2024/04/18 09:45:25;;;;;;;5.17;0.90;;;;;;;8.88;100.00;101706.44;5413059;26;20848;-71
2024/04/18 09:47:51;;;;;;;6.07;1.20;;;;;;;9.29;100.00;101752.78;5412750;26;20548;-72
2024/04/18 09:50:17;;;;;;;5.63;0.80;;;;;;;9.92;100.00;101851.19;5409136;26;20471;-72
2024/04/18 09:52:45;;;;;;;5.30;0.80;;;;;;;9.69;100.00;101829.59;5408939;26;20936;-71
2024/04/18 09:55:13;;;;;;;7.97;1.10;;;;;;;9.66;100.00;101823.72;5441591;26;20474;-72
2024/04/18 09:57:42;;;;;;;5.40;1.07;;;;;;;9.77;100.00;101839.44;5408987;26;20499;-72
2024/04/18 10:00:10;;;;;;;5.60;1.00;;;;;;;9.14;100.00;101754.44;5404464;26;20551;-72
2024/04/18 10:02:36;;;;;;;5.30;1.10;;;;;;;9.80;100.00;101844.47;5403248;26;20482;-71
2024/04/18 10:05:02;;;;;;;6.73;1.10;;;;;;;9.72;100.00;101766.81;5401588;26;20458;-72
2024/04/18 10:07:29;;;;;;;4.97;0.90;;;;;;;9.52;100.00;101747.59;5403454;26;20500;-71
2024/04/18 10:09:56;;;;;;;7.27;1.00;;;;;;;9.78;100.00;101834.94;5411265;26;20612;-71
2024/04/18 10:12:29;;;;;;;5.70;0.90;;;;;;;9.93;100.00;101841.28;5405717;26;20527;-71
2024/04/18 10:14:54;;;;;;;8.33;1.20;;;;;;;9.70;100.00;101846.50;5406277;26;20467;-72
2024/04/18 10:17:24;;;;;;;6.80;1.03;;;;;;;9.18;100.00;101729.88;5406114;26;20515;-71
2024/04/18 10:19:55;;;;;;;5.33;1.03;;;;;;;9.84;100.00;101800.28;5410685;26;20251;-71
2024/04/18 10:22:23;;;;;;;7.77;1.00;;;;;;;9.69;100.00;101734.97;5408110;26;20525;-72
2024/04/18 10:24:50;;;;;;;7.47;1.13;;;;;;;9.65;100.00;101755.09;5404898;26;20484;-71
2024/04/18 10:27:18;;;;;;;7.87;1.30;;;;;;;9.85;100.00;101785.03;5396567;26;20466;-71
2024/04/18 10:29:57;;;;;;;10.40;1.80;;;;;;;10.18;100.00;101845.59;5402875;26;22005;-70
2024/04/18 10:32:30;;;;;;;4.80;0.93;;;;;;;10.38;100.00;101850.59;5408261;26;20479;-70
2024/04/18 10:34:58;;;;;;;7.87;1.10;;;;;;;10.25;100.00;101861.00;5407134;26;20585;-71
2024/04/18 10:37:23;;;;;;;6.20;1.20;;;;;;;9.95;100.00;101844.63;5402100;26;20471;-70
2024/04/18 10:39:49;;;;;;;7.10;1.13;;;;;;;9.86;100.00;101813.47;5408457;26;20523;-72
2024/04/18 10:42:20;;;;;;;6.40;1.23;;;;;;;9.28;100.00;101732.38;5408702;26;20245;-71
2024/04/18 10:44:47;;;;;;;6.30;1.03;;;;;;;10.06;100.00;101863.03;5405626;26;21163;-72
2024/04/18 10:47:12;;;;;;;6.60;1.10;;;;;;;9.73;100.00;101792.59;5417830;26;20506;-71
2024/04/18 10:49:38;;;;;;;5.33;0.90;;;;;;;9.55;100.00;101752.59;5411141;26;20478;-71
2024/04/18 10:52:14;;;;;;;6.70;1.20;;;;;;;9.89;100.00;101827.41;5410787;26;20451;-72
2024/04/18 10:54:39;;;;;;;8.47;1.30;;;;;;;9.94;100.00;101856.34;5404427;26;20467;-71
2024/04/18 10:57:04;;;;;;;7.47;1.10;;;;;;;9.25;100.00;101746.91;5403323;26;20813;-71
2024/04/18 10:59:30;;;;;;;7.57;1.30;;;;;;;9.38;100.00;101764.34;5408971;26;20248;-71
2024/04/18 11:02:06;;;;;;;8.40;1.60;;;;;;;9.25;100.00;101754.13;5413110;26;20648;-72
2024/04/18 11:04:32;;;;;;;7.60;1.57;;;;;;;9.29;100.00;101792.97;5403928;26;20478;-72
2024/04/18 11:06:57;;;;;;;6.30;1.20;;;;;;;9.70;100.00;101858.06;5408280;26;20522;-71
2024/04/18 11:09:23;;;;;;;9.50;1.43;;;;;;;9.34;100.00;101840.63;5407115;26;20239;-72
2024/04/18 11:11:50;;;;;;;7.97;2.00;;;;;;;9.40;100.00;101848.00;5407205;26;20343;-71
2024/04/18 11:14:17;;;;;;;10.43;1.43;;;;;;;9.26;100.00;101825.41;5410667;26;20245;-71
2024/04/18 11:16:44;;;;;;;7.40;1.57;;;;;;;8.79;100.00;101710.94;5408608;26;22483;-72
2024/04/18 11:19:09;;;;;;;6.70;1.30;;;;;;;9.36;100.00;101811.84;5391706;26;20951;-72
2024/04/18 11:21:35;;;;;;;8.53;1.27;;;;;;;9.82;100.00;101863.91;5406798;26;20580;-72